Time;durP1;ratioP1;P1;durP2;ratioP2;P2;SDS_P1;SDS_P2;PMS_P1;PMS_P2;Temp;Humidity;BMP_temperature;BMP_pressure;BME280_temperature;BME280_humidity;BME280_pressure;Samples;Min_cycle;Max_cycle;Signal;HPM_P1;HPM_P2
2021/03/19 05:02:34;;;;;;;6.53;5.95;;;-0.10;99.90;;;;;;5007309;23;20250;-72
2021/03/19 05:05:00;;;;;;;8.48;7.60;;;-0.10;99.90;;;;;;4915012;29;20231;-71
2021/03/19 05:07:27;;;;;;;7.03;6.45;;;-0.10;99.90;;;;;;4915864;29;20734;-72
2021/03/19 05:09:53;;;;;;;11.50;7.32;;;-0.10;99.90;;;;;;4914719;29;20583;-71
2021/03/19 05:12:19;;;;;;;7.93;7.10;;;-0.10;99.90;;;;;;4915270;29;20230;-71
2021/03/19 05:14:46;;;;;;;8.35;6.60;;;-0.10;99.90;;;;;;4902324;29;20427;-71
2021/03/19 05:17:12;;;;;;;7.40;6.80;;;-0.10;99.90;;;;;;4916443;29;20215;-71
2021/03/19 05:19:39;;;;;;;7.55;6.85;;;-0.10;99.90;;;;;;4886316;29;20212;-71
2021/03/19 05:22:05;;;;;;;7.40;6.72;;;-0.10;99.90;;;;;;4895200;29;20651;-72
2021/03/19 05:24:32;;;;;;;7.35;6.75;;;-0.10;99.90;;;;;;4887812;29;20204;-72
2021/03/19 05:26:58;;;;;;;10.93;7.90;;;-0.10;99.90;;;;;;4919397;29;20214;-72
2021/03/19 05:29:24;;;;;;;7.78;7.05;;;-0.10;99.90;;;;;;4894039;29;20287;-74
2021/03/19 05:31:51;;;;;;;9.73;8.75;;;-0.10;99.90;;;;;;4910112;29;20230;-73
2021/03/19 05:34:17;;;;;;;9.27;7.70;;;-0.10;99.90;;;;;;4900082;29;20195;-73
2021/03/19 05:36:44;;;;;;;7.63;6.88;;;-0.10;99.90;;;;;;4896997;29;20214;-73
2021/03/19 05:39:12;;;;;;;8.00;6.97;;;-0.10;99.90;;;;;;4902190;29;20251;-73
2021/03/19 05:41:41;;;;;;;10.88;8.60;;;-0.10;99.90;;;;;;4912620;29;20231;-73
2021/03/19 05:44:14;;;;;;;8.88;8.18;;;-0.10;99.90;;;;;;4900991;29;20213;-73
2021/03/19 05:46:43;;;;;;;9.32;8.15;;;-0.10;99.90;;;;;;4913253;29;20203;-73
2021/03/19 05:49:17;;;;;;;9.82;8.57;;;-0.10;99.90;;;;;;4898754;29;20208;-73
2021/03/19 05:51:47;;;;;;;8.93;7.55;;;0.00;99.90;;;;;;4899457;29;20234;-73
2021/03/19 05:54:20;;;;;;;8.52;7.70;;;0.00;99.90;;;;;;4916489;29;20270;-73
2021/03/19 05:56:48;;;;;;;13.00;8.38;;;0.00;99.90;;;;;;4911823;29;20204;-73
2021/03/19 05:59:15;;;;;;;10.32;9.20;;;0.00;99.90;;;;;;4897561;29;20211;-73
2021/03/19 06:01:41;;;;;;;11.65;9.20;;;0.10;99.90;;;;;;4895093;29;20239;-72
2021/03/19 06:04:18;;;;;;;10.85;8.95;;;0.10;99.90;;;;;;4881227;29;20220;-71
2021/03/19 06:06:52;;;;;;;13.45;10.20;;;0.10;99.90;;;;;;4908239;29;20253;-71
2021/03/19 06:09:31;;;;;;;11.32;9.73;;;0.10;99.90;;;;;;4900882;29;20290;-71
2021/03/19 06:12:00;;;;;;;9.90;8.95;;;0.20;99.90;;;;;;4885348;29;20314;-72
2021/03/19 06:14:29;;;;;;;12.70;10.25;;;0.20;99.90;;;;;;4916457;29;20669;-72
2021/03/19 06:17:08;;;;;;;10.93;9.73;;;0.30;99.90;;;;;;4907848;29;20203;-72
2021/03/19 06:19:38;;;;;;;13.18;10.68;;;0.40;99.90;;;;;;4887956;29;20252;-72
2021/03/19 06:22:16;;;;;;;9.88;8.98;;;0.40;99.90;;;;;;4914375;29;20238;-72
2021/03/19 06:24:44;;;;;;;9.75;8.43;;;0.50;99.90;;;;;;4900612;29;20693;-72
2021/03/19 06:27:19;;;;;;;10.25;8.68;;;0.60;99.90;;;;;;4898042;29;20207;-72
2021/03/19 06:29:48;;;;;;;10.52;9.43;;;0.70;99.90;;;;;;4898954;29;20619;-73
2021/03/19 06:32:24;;;;;;;12.77;9.70;;;0.80;99.90;;;;;;4898942;29;20314;-72
2021/03/19 06:35:16;;;;;;;11.30;9.05;;;0.80;99.90;;;;;;4899513;29;20648;-72
2021/03/19 06:37:45;;;;;;;10.07;9.02;;;0.90;99.90;;;;;;4870572;29;20238;-71
2021/03/19 06:40:29;;;;;;;10.05;8.50;;;1.00;99.90;;;;;;4904474;29;20276;-71
2021/03/19 06:43:12;;;;;;;9.77;7.30;;;1.00;99.90;;;;;;4917595;29;20262;-71
2021/03/19 06:45:39;;;;;;;16.00;8.13;;;1.10;99.90;;;;;;4899494;29;20537;-71
2021/03/19 06:48:25;;;;;;;8.48;7.63;;;1.20;99.90;;;;;;4898808;29;20247;-72
2021/03/19 06:50:52;;;;;;;9.02;8.00;;;1.30;99.90;;;;;;4880474;29;20232;-72
2021/03/19 06:53:23;;;;;;;9.40;8.30;;;1.40;99.90;;;;;;4880932;29;20340;-72
2021/03/19 06:55:52;;;;;;;9.20;7.50;;;1.50;99.90;;;;;;4886916;29;20222;-72
2021/03/19 06:58:34;;;;;;;8.45;7.15;;;1.60;99.90;;;;;;4912682;29;20675;-74
2021/03/19 07:01:00;;;;;;;9.65;7.70;;;1.70;99.90;;;;;;4898782;29;20242;-74
2021/03/19 07:04:08;;;;;;;8.20;7.32;;;1.70;99.90;;;;;;4898907;29;20214;-73
2021/03/19 07:06:59;;;;;;;9.20;7.88;;;1.80;99.90;;;;;;4899292;29;20231;-73
2021/03/19 07:09:40;;;;;;;7.70;7.00;;;1.90;99.90;;;;;;4898515;29;20210;-74
2021/03/19 07:12:20;;;;;;;8.13;7.45;;;2.00;99.90;;;;;;4909976;29;20285;-72
2021/03/19 07:14:58;;;;;;;7.60;6.78;;;2.10;99.90;;;;;;4901800;29;20226;-72
2021/03/19 07:17:39;;;;;;;8.13;6.95;;;2.20;99.90;;;;;;4915179;29;20214;-72
2021/03/19 07:20:16;;;;;;;9.27;7.78;;;2.20;99.90;;;;;;4902083;29;20227;-73
2021/03/19 07:23:07;;;;;;;8.65;7.70;;;2.30;99.90;;;;;;4898925;29;20275;-72
2021/03/19 07:25:52;;;;;;;8.18;7.32;;;2.40;99.90;;;;;;4899187;29;20199;-72
2021/03/19 07:29:03;;;;;;;9.70;6.53;;;2.50;99.90;;;;;;4898122;29;20219;-72
2021/03/19 07:31:44;;;;;;;9.27;7.82;;;2.60;99.90;;;;;;4906226;29;20231;-72
2021/03/19 07:34:26;;;;;;;11.25;6.65;;;2.70;99.90;;;;;;4898377;29;20211;-72
2021/03/19 07:37:02;;;;;;;6.95;6.22;;;2.70;99.90;;;;;;4913389;29;20199;-72
2021/03/19 07:39:57;;;;;;;7.90;7.10;;;2.80;99.90;;;;;;4917911;29;20612;-71
2021/03/19 07:42:52;;;;;;;7.18;6.57;;;2.80;99.90;;;;;;4898393;29;20223;-70
2021/03/19 07:45:25;;;;;;;7.13;6.55;;;2.80;99.90;;;;;;4898963;29;20581;-72
2021/03/19 07:48:01;;;;;;;7.13;6.50;;;2.80;99.90;;;;;;4914582;29;20206;-70
2021/03/19 07:50:42;;;;;;;9.55;7.10;;;2.90;99.90;;;;;;4916829;29;20229;-69
2021/03/19 07:53:46;;;;;;;7.82;7.03;;;2.90;99.90;;;;;;4900355;29;20215;-70
2021/03/19 07:56:26;;;;;;;10.70;7.32;;;3.10;99.90;;;;;;4898230;29;20258;-70
2021/03/19 07:58:59;;;;;;;8.85;7.95;;;3.30;99.90;;;;;;4879113;29;20242;-70
2021/03/19 08:01:35;;;;;;;7.05;6.50;;;3.30;99.90;;;;;;4896350;29;20238;-70
2021/03/19 08:04:13;;;;;;;7.03;6.45;;;3.30;99.90;;;;;;4894792;29;20211;-70
2021/03/19 08:06:45;;;;;;;6.82;6.32;;;3.40;99.90;;;;;;4908128;29;20224;-71
2021/03/19 08:09:21;;;;;;;7.18;6.68;;;3.50;99.90;;;;;;4916256;29;20269;-70
2021/03/19 08:11:52;;;;;;;7.70;5.97;;;3.60;99.90;;;;;;4905494;29;20360;-71
2021/03/19 08:14:47;;;;;;;6.43;5.90;;;3.70;99.90;;;;;;4897363;29;20199;-71
2021/03/19 08:17:23;;;;;;;11.25;6.65;;;3.80;99.90;;;;;;4897965;29;20343;-70
2021/03/19 08:19:56;;;;;;;6.25;5.85;;;3.90;99.90;;;;;;4898361;29;20214;-71
2021/03/19 08:22:28;;;;;;;6.72;5.97;;;4.00;99.90;;;;;;4912123;29;20226;-71
2021/03/19 08:25:00;;;;;;;6.55;6.03;;;4.10;99.90;;;;;;4903396;29;20199;-71
2021/03/19 08:27:36;;;;;;;6.03;5.53;;;4.10;99.90;;;;;;4897778;29;20230;-71
2021/03/19 08:30:07;;;;;;;6.38;5.78;;;4.10;99.90;;;;;;4881039;29;20276;-71
2021/03/19 08:32:46;;;;;;;5.40;4.90;;;4.20;99.90;;;;;;4893671;29;20233;-71
2021/03/19 08:35:22;;;;;;;5.97;5.47;;;4.30;99.90;;;;;;4897318;29;20234;-71
2021/03/19 08:38:00;;;;;;;8.85;5.70;;;4.50;99.90;;;;;;4896113;29;20691;-71
2021/03/19 08:40:35;;;;;;;5.53;4.63;;;4.60;99.90;;;;;;4897446;29;20238;-70
2021/03/19 08:43:04;;;;;;;5.03;4.63;;;4.70;99.90;;;;;;4896809;29;20210;-70
2021/03/19 08:45:32;;;;;;;4.30;3.72;;;4.60;99.90;;;;;;4897198;29;20204;-70
2021/03/19 08:48:02;;;;;;;5.55;5.15;;;4.70;99.90;;;;;;4886192;29;20215;-70
2021/03/19 08:50:35;;;;;;;5.70;5.30;;;4.70;99.90;;;;;;4897215;29;20774;-71
2021/03/19 08:53:07;;;;;;;5.03;4.55;;;4.80;99.90;;;;;;4881322;29;20211;-72
2021/03/19 08:55:34;;;;;;;4.43;4.13;;;4.90;99.90;;;;;;4894871;29;20231;-72
2021/03/19 08:58:48;;;;;;;5.65;5.10;;;5.00;99.90;;;;;;4881649;29;20211;-72
2021/03/19 09:01:47;;;;;;;4.95;4.50;;;5.20;99.90;;;;;;4882871;29;20318;-72
2021/03/19 09:04:14;;;;;;;4.43;4.15;;;5.40;99.90;;;;;;4893010;29;20220;-70
2021/03/19 09:07:19;;;;;;;3.15;2.72;;;5.50;99.90;;;;;;4896699;29;20250;-71
2021/03/19 09:09:45;;;;;;;6.25;3.33;;;5.40;99.90;;;;;;4897213;29;20263;-71
2021/03/19 09:12:25;;;;;;;2.78;2.67;;;5.40;99.90;;;;;;4896351;29;20258;-71
2021/03/19 09:15:29;;;;;;;3.40;3.20;;;5.50;99.90;;;;;;4908412;29;20242;-72
2021/03/19 09:17:58;;;;;;;3.65;3.35;;;5.70;99.90;;;;;;4915434;29;20236;-71
2021/03/19 09:20:33;;;;;;;2.40;2.30;;;5.70;99.90;;;;;;4915420;29;20206;-71
2021/03/19 09:23:15;;;;;;;2.97;2.88;;;5.70;99.90;;;;;;4898841;29;20218;-71
2021/03/19 09:25:45;;;;;;;2.88;2.70;;;5.70;99.90;;;;;;4896359;29;20215;-71
2021/03/19 09:28:47;;;;;;;2.90;2.70;;;5.70;99.90;;;;;;4896187;29;20239;-70
2021/03/19 09:31:37;;;;;;;1.40;1.35;;;5.80;99.90;;;;;;4898665;29;20229;-71
2021/03/19 09:34:19;;;;;;;3.17;2.97;;;5.60;99.90;;;;;;4914596;29;20217;-71
2021/03/19 09:37:11;;;;;;;2.70;2.50;;;5.60;99.90;;;;;;4907071;29;20672;-71
2021/03/19 09:40:00;;;;;;;2.67;2.58;;;5.60;99.90;;;;;;4899940;29;20582;-70
2021/03/19 09:42:58;;;;;;;2.60;2.50;;;5.70;99.90;;;;;;4890514;29;20231;-71
2021/03/19 09:45:48;;;;;;;2.45;2.28;;;5.80;99.90;;;;;;4903376;29;20208;-70
2021/03/19 09:48:28;;;;;;;2.05;2.00;;;5.90;99.90;;;;;;4881533;29;20342;-72
2021/03/19 09:50:58;;;;;;;3.70;3.40;;;5.90;99.90;;;;;;4895891;29;20319;-71
2021/03/19 09:53:38;;;;;;;3.10;2.80;;;5.90;99.90;;;;;;4895652;29;20269;-72
2021/03/19 09:56:17;;;;;;;2.33;2.22;;;6.00;99.90;;;;;;4918983;29;20236;-70
2021/03/19 09:58:45;;;;;;;2.40;2.25;;;6.00;99.90;;;;;;4881591;29;20212;-71
2021/03/19 10:01:27;;;;;;;3.50;3.08;;;6.10;99.90;;;;;;4880691;29;20685;-71
2021/03/19 10:03:57;;;;;;;3.28;2.63;;;6.10;99.90;;;;;;4880591;29;20208;-73
2021/03/19 10:06:28;;;;;;;2.10;2.00;;;6.00;99.90;;;;;;4881655;29;20306;-74
2021/03/19 10:09:07;;;;;;;2.50;2.40;;;5.80;99.90;;;;;;4890680;29;20208;-74
2021/03/19 10:11:34;;;;;;;2.10;2.00;;;5.90;99.90;;;;;;4900636;29;20235;-72
2021/03/19 10:14:15;;;;;;;2.20;2.20;;;5.90;99.90;;;;;;4899163;29;20203;-72
2021/03/19 10:16:41;;;;;;;2.20;2.10;;;6.00;99.90;;;;;;4899985;29;20550;-72
2021/03/19 10:19:14;;;;;;;3.08;2.88;;;5.90;99.90;;;;;;4899700;29;20227;-72
2021/03/19 10:21:45;;;;;;;2.92;2.50;;;5.90;99.90;;;;;;4916543;29;20230;-72
2021/03/19 10:24:13;;;;;;;2.00;1.90;;;5.90;99.90;;;;;;4917704;29;20203;-72
2021/03/19 10:26:50;;;;;;;2.25;2.15;;;5.90;99.90;;;;;;4918770;29;20500;-72
2021/03/19 10:29:21;;;;;;;2.45;1.48;;;6.00;99.90;;;;;;4918397;29;20195;-72
2021/03/19 10:31:51;;;;;;;1.95;1.85;;;6.00;99.90;;;;;;4919089;29;20559;-72
2021/03/19 10:34:38;;;;;;;2.97;1.70;;;6.10;99.90;;;;;;4916540;29;20214;-72
2021/03/19 10:37:10;;;;;;;1.95;1.85;;;6.00;99.90;;;;;;4918098;29;20290;-72
2021/03/19 10:39:45;;;;;;;2.45;2.35;;;6.00;99.90;;;;;;4918464;29;20214;-72
2021/03/19 10:42:19;;;;;;;2.58;2.38;;;6.10;99.90;;;;;;4918090;29;20234;-72
2021/03/19 10:44:57;;;;;;;2.42;2.28;;;6.20;99.90;;;;;;4918460;29;20265;-72
2021/03/19 10:47:28;;;;;;;2.08;1.98;;;6.20;99.90;;;;;;4918111;29;20277;-72
2021/03/19 10:49:58;;;;;;;2.20;2.00;;;6.20;99.90;;;;;;4907449;29;20225;-72
2021/03/19 10:52:32;;;;;;;2.22;2.22;;;6.20;99.90;;;;;;4898645;29;20303;-72
2021/03/19 10:55:01;;;;;;;3.28;2.50;;;6.20;99.90;;;;;;4899533;29;20331;-72
2021/03/19 10:57:31;;;;;;;2.20;2.10;;;6.20;99.90;;;;;;4899593;29;20226;-72
2021/03/19 10:59:58;;;;;;;2.95;2.85;;;6.20;99.90;;;;;;4899145;29;20382;-72
2021/03/19 11:02:27;;;;;;;2.03;1.92;;;6.20;99.90;;;;;;4899275;29;20242;-72
2021/03/19 11:05:13;;;;;;;2.25;2.15;;;6.30;99.90;;;;;;4914474;29;20211;-72
2021/03/19 11:07:43;;;;;;;2.33;2.28;;;6.30;99.90;;;;;;4917364;29;20255;-72
2021/03/19 11:10:21;;;;;;;1.88;1.77;;;6.40;99.90;;;;;;4917940;29;20330;-72
2021/03/19 11:12:50;;;;;;;2.65;2.45;;;6.50;99.90;;;;;;4904099;29;20591;-71
2021/03/19 11:15:20;;;;;;;1.90;1.90;;;6.50;99.90;;;;;;4880655;29;20235;-72
2021/03/19 11:17:47;;;;;;;2.20;2.10;;;6.40;99.90;;;;;;4898340;29;20199;-72
2021/03/19 11:20:33;;;;;;;2.17;2.15;;;6.40;99.90;;;;;;4887942;29;20252;-72
2021/03/19 11:22:59;;;;;;;2.00;1.90;;;6.50;99.90;;;;;;4883596;29;20262;-72
2021/03/19 11:25:46;;;;;;;2.00;1.90;;;6.50;99.90;;;;;;4903614;29;20534;-72
2021/03/19 11:28:28;;;;;;;2.58;2.17;;;6.40;99.90;;;;;;4900382;29;20207;-72
2021/03/19 11:30:55;;;;;;;1.95;1.85;;;6.40;99.90;;;;;;4880597;29;20625;-72
2021/03/19 11:33:22;;;;;;;2.60;2.50;;;6.30;99.90;;;;;;4901266;29;20310;-72
2021/03/19 11:36:13;;;;;;;2.80;2.60;;;6.40;99.90;;;;;;4882183;29;20223;-73
2021/03/19 11:38:41;;;;;;;2.05;2.05;;;6.50;99.90;;;;;;4886255;29;20204;-72
2021/03/19 11:41:22;;;;;;;2.47;2.38;;;6.50;99.90;;;;;;4905325;29;20234;-72
2021/03/19 11:43:48;;;;;;;2.30;2.20;;;6.50;99.90;;;;;;4908968;29;20213;-72
2021/03/19 11:46:14;;;;;;;2.13;2.10;;;6.60;99.90;;;;;;4900867;29;20203;-73
2021/03/19 11:48:43;;;;;;;2.13;2.03;;;6.50;99.90;;;;;;4917780;29;20331;-73
2021/03/19 11:51:13;;;;;;;1.67;1.67;;;6.50;99.90;;;;;;4888906;29;20231;-73
2021/03/19 11:53:40;;;;;;;2.22;2.22;;;6.60;99.90;;;;;;4903366;29;20218;-73
2021/03/19 11:56:07;;;;;;;2.55;1.73;;;6.60;99.90;;;;;;4898202;29;20223;-71
2021/03/19 11:58:35;;;;;;;1.77;1.77;;;6.50;99.90;;;;;;4898245;29;20207;-72
2021/03/19 12:01:02;;;;;;;1.80;1.80;;;6.50;99.90;;;;;;4896671;29;20238;-72
2021/03/19 12:03:33;;;;;;;2.72;2.63;;;6.70;99.90;;;;;;4898166;29;20211;-72
2021/03/19 12:06:01;;;;;;;2.10;2.00;;;6.70;99.90;;;;;;4898768;29;20203;-72
2021/03/19 12:08:29;;;;;;;2.30;2.20;;;6.60;99.90;;;;;;4897516;29;20651;-72
2021/03/19 12:10:56;;;;;;;2.10;2.00;;;6.60;99.90;;;;;;4899309;29;20299;-73
2021/03/19 12:13:22;;;;;;;2.20;2.10;;;6.50;99.90;;;;;;4898221;29;20661;-73
2021/03/19 12:15:50;;;;;;;2.00;1.90;;;6.50;99.90;;;;;;4884719;29;20560;-74
2021/03/19 12:18:21;;;;;;;2.28;2.17;;;6.60;99.90;;;;;;4896583;29;20214;-74
2021/03/19 12:20:47;;;;;;;1.83;1.80;;;6.60;99.90;;;;;;4900065;29;20237;-75
2021/03/19 12:23:14;;;;;;;2.03;1.92;;;6.60;99.90;;;;;;4885955;29;20287;-74
2021/03/19 12:25:41;;;;;;;2.15;2.15;;;6.60;99.90;;;;;;4896109;29;20203;-74
2021/03/19 12:28:11;;;;;;;2.00;1.90;;;6.70;99.90;;;;;;4897782;29;20327;-74
2021/03/19 12:30:37;;;;;;;1.77;1.77;;;6.80;99.90;;;;;;4897932;29;20239;-75
2021/03/19 12:33:04;;;;;;;1.58;1.48;;;6.90;99.90;;;;;;4898151;29;20214;-73
2021/03/19 12:35:30;;;;;;;1.48;1.48;;;6.80;99.90;;;;;;4897893;29;20336;-74
2021/03/19 12:37:58;;;;;;;1.25;1.25;;;6.70;99.90;;;;;;4896390;29;20460;-75
2021/03/19 12:40:27;;;;;;;1.83;1.75;;;6.60;99.90;;;;;;4898111;29;20214;-74
2021/03/19 12:42:54;;;;;;;1.85;1.75;;;6.50;99.90;;;;;;4896332;29;20279;-73
2021/03/19 12:45:25;;;;;;;1.60;1.50;;;6.50;99.90;;;;;;4895377;29;20219;-74
2021/03/19 12:47:52;;;;;;;1.42;1.42;;;6.50;99.90;;;;;;4898822;29;20672;-72
2021/03/19 12:50:20;;;;;;;2.20;2.20;;;6.50;99.90;;;;;;4896974;29;20270;-71
2021/03/19 12:52:46;;;;;;;2.00;1.90;;;6.50;99.90;;;;;;4889661;29;20402;-73
2021/03/19 12:55:13;;;;;;;2.33;2.25;;;6.60;99.90;;;;;;4905254;29;20746;-73
2021/03/19 12:57:39;;;;;;;1.83;1.60;;;6.70;99.90;;;;;;4902377;29;20211;-75
2021/03/19 13:00:09;;;;;;;1.75;1.65;;;6.70;99.90;;;;;;4904147;29;20212;-75
2021/03/19 13:02:35;;;;;;;2.35;1.70;;;6.60;99.90;;;;;;4880160;29;20236;-75
2021/03/19 13:05:01;;;;;;;2.20;1.33;;;6.50;99.90;;;;;;4890697;29;20219;-75
2021/03/19 13:07:27;;;;;;;1.70;1.70;;;6.40;99.90;;;;;;4897659;29;20370;-75
2021/03/19 13:09:54;;;;;;;2.13;1.35;;;6.40;99.90;;;;;;4897765;29;20221;-74
2021/03/19 13:12:20;;;;;;;1.52;1.42;;;6.40;99.90;;;;;;4902675;29;20230;-75
2021/03/19 13:14:46;;;;;;;1.58;1.58;;;6.40;99.90;;;;;;4903646;29;20222;-75
2021/03/19 13:17:13;;;;;;;1.25;1.25;;;6.40;99.90;;;;;;4903724;29;20230;-75
2021/03/19 13:19:39;;;;;;;1.05;1.05;;;6.30;99.90;;;;;;4905265;29;20207;-76
2021/03/19 13:22:05;;;;;;;1.33;1.33;;;6.40;99.90;;;;;;4904606;29;20235;-74
2021/03/19 13:24:32;;;;;;;1.52;1.42;;;6.50;99.90;;;;;;4904821;29;20211;-75
2021/03/19 13:26:58;;;;;;;1.13;1.13;;;6.50;99.90;;;;;;4906955;29;20214;-75
2021/03/19 13:29:24;;;;;;;1.20;1.20;;;6.50;99.90;;;;;;4907641;29;20279;-75
2021/03/19 13:31:50;;;;;;;2.55;1.20;;;6.50;99.90;;;;;;4906781;29;20235;-75
2021/03/19 13:34:17;;;;;;;1.52;1.35;;;6.50;99.90;;;;;;4919851;29;20243;-75
2021/03/19 13:36:43;;;;;;;1.48;1.48;;;6.30;99.90;;;;;;4926036;29;20571;-75
2021/03/19 13:39:10;;;;;;;0.88;0.88;;;6.20;99.90;;;;;;4925661;29;20214;-75
2021/03/19 13:41:37;;;;;;;0.98;0.70;;;6.20;99.90;;;;;;4925069;29;20253;-75
2021/03/19 13:44:05;;;;;;;1.35;1.05;;;6.20;99.90;;;;;;4922779;29;20691;-72
2021/03/19 13:46:32;;;;;;;1.00;1.00;;;6.20;99.90;;;;;;4928978;29;20210;-72
2021/03/19 13:48:58;;;;;;;0.80;0.80;;;6.20;99.90;;;;;;4910308;29;20214;-72
2021/03/19 13:51:26;;;;;;;1.65;0.82;;;6.20;99.90;;;;;;4903307;29;20246;-73
2021/03/19 13:53:52;;;;;;;1.58;0.70;;;6.20;99.90;;;;;;4902483;29;20207;-71
2021/03/19 13:56:23;;;;;;;3.60;0.93;;;6.10;99.90;;;;;;4903191;29;20230;-71
2021/03/19 13:58:49;;;;;;;0.95;0.95;;;5.90;99.90;;;;;;4902767;29;20318;-71
2021/03/19 14:01:15;;;;;;;0.63;0.63;;;5.90;99.90;;;;;;4903318;29;20246;-71
2021/03/19 14:03:41;;;;;;;3.75;1.00;;;5.90;99.90;;;;;;4920959;29;20232;-69
2021/03/19 14:06:08;;;;;;;1.23;1.23;;;5.90;99.90;;;;;;4921290;29;20289;-69
2021/03/19 14:08:37;;;;;;;1.30;1.20;;;5.80;99.90;;;;;;4921389;29;20210;-69
2021/03/19 14:11:06;;;;;;;1.05;1.05;;;5.80;99.90;;;;;;4921816;29;20376;-68
2021/03/19 14:13:32;;;;;;;1.25;1.15;;;5.80;99.90;;;;;;4920841;29;20222;-69
2021/03/19 14:15:59;;;;;;;1.10;1.10;;;5.70;99.90;;;;;;4922283;29;20230;-69
2021/03/19 14:18:26;;;;;;;2.58;0.95;;;5.60;99.90;;;;;;4922123;29;20214;-69
2021/03/19 14:20:54;;;;;;;0.60;0.60;;;5.60;99.90;;;;;;4922658;29;20714;-69
2021/03/19 14:23:24;;;;;;;0.85;0.85;;;5.50;99.90;;;;;;4918715;29;20206;-70
2021/03/19 14:25:51;;;;;;;1.27;1.27;;;5.40;99.90;;;;;;4919617;29;20214;-68
2021/03/19 14:28:20;;;;;;;0.65;0.65;;;5.40;99.90;;;;;;4918467;29;20215;-69
2021/03/19 14:30:48;;;;;;;0.90;0.68;;;5.30;99.90;;;;;;4913862;29;20722;-69
2021/03/19 14:33:14;;;;;;;0.95;0.95;;;5.20;99.90;;;;;;4899101;29;20211;-69
2021/03/19 14:35:41;;;;;;;0.70;0.70;;;5.10;99.90;;;;;;4899891;29;20538;-69
2021/03/19 14:38:08;;;;;;;1.42;1.05;;;5.10;99.90;;;;;;4899180;29;20312;-69
2021/03/19 14:40:38;;;;;;;1.65;1.55;;;5.00;99.90;;;;;;4899752;29;20287;-71
2021/03/19 14:43:05;;;;;;;1.42;1.33;;;5.00;99.90;;;;;;4899179;29;20215;-72
2021/03/19 14:45:35;;;;;;;1.38;1.30;;;4.90;99.90;;;;;;4906190;29;20246;-71
2021/03/19 14:48:02;;;;;;;1.40;0.90;;;4.90;99.90;;;;;;4918241;29;20261;-71
2021/03/19 14:50:31;;;;;;;0.88;0.88;;;4.80;99.90;;;;;;4918213;29;20234;-71
2021/03/19 14:52:57;;;;;;;3.22;0.88;;;4.80;99.90;;;;;;4918124;29;20687;-75
2021/03/19 14:55:24;;;;;;;0.70;0.70;;;4.80;99.90;;;;;;4921340;29;20229;-75
2021/03/19 14:57:51;;;;;;;0.50;0.50;;;5.00;99.90;;;;;;4922753;29;20300;-75
2021/03/19 15:00:22;;;;;;;0.93;0.93;;;5.00;99.90;;;;;;4912187;29;20384;-75
2021/03/19 15:02:50;;;;;;;0.80;0.80;;;4.90;99.90;;;;;;4903119;29;20298;-75
2021/03/19 15:05:17;;;;;;;0.50;0.50;;;4.90;99.90;;;;;;4901593;29;20207;-75
2021/03/19 15:07:43;;;;;;;0.70;0.70;;;5.00;99.90;;;;;;4883336;29;20212;-75
2021/03/19 15:10:11;;;;;;;0.80;0.80;;;5.00;99.90;;;;;;4894169;29;20208;-72
2021/03/19 15:12:37;;;;;;;1.13;1.05;;;4.80;99.90;;;;;;4897091;29;20586;-73
2021/03/19 15:15:05;;;;;;;0.40;0.40;;;4.60;99.90;;;;;;4896185;29;20874;-72
2021/03/19 15:17:32;;;;;;;0.50;0.50;;;4.60;99.90;;;;;;4899648;29;20687;-71
2021/03/19 15:19:58;;;;;;;0.57;0.57;;;4.50;99.90;;;;;;4882226;29;20215;-71
2021/03/19 15:22:25;;;;;;;0.60;0.60;;;4.40;99.90;;;;;;4892819;29;20258;-71
2021/03/19 15:24:51;;;;;;;0.70;0.70;;;4.30;99.90;;;;;;4893893;29;20246;-71
2021/03/19 15:27:17;;;;;;;0.60;0.60;;;4.30;99.90;;;;;;4884978;29;20283;-71
2021/03/19 15:29:44;;;;;;;0.60;0.60;;;4.30;99.90;;;;;;4893297;29;20215;-71
2021/03/19 15:32:10;;;;;;;0.80;0.80;;;4.30;99.90;;;;;;4897195;29;20235;-71
2021/03/19 15:34:37;;;;;;;0.60;0.60;;;4.40;99.90;;;;;;4882660;29;20212;-71
2021/03/19 15:37:05;;;;;;;0.85;0.85;;;4.30;99.90;;;;;;4892362;29;20704;-71
2021/03/19 15:39:31;;;;;;;0.85;0.85;;;4.30;99.90;;;;;;4898385;29;20409;-72
2021/03/19 15:41:57;;;;;;;0.80;0.75;;;4.20;99.90;;;;;;4898313;29;20299;-72
2021/03/19 15:44:23;;;;;;;1.35;1.35;;;4.30;99.90;;;;;;4897093;29;20223;-71
2021/03/19 15:46:49;;;;;;;1.50;0.85;;;4.30;99.90;;;;;;4897671;29;20207;-71
2021/03/19 15:49:16;;;;;;;0.90;0.90;;;4.30;99.90;;;;;;4897623;29;20219;-71
2021/03/19 15:51:43;;;;;;;0.60;0.60;;;4.30;99.90;;;;;;4898202;29;20283;-71
2021/03/19 15:54:09;;;;;;;1.17;1.08;;;4.20;99.90;;;;;;4897455;29;20200;-70
2021/03/19 15:56:35;;;;;;;1.13;1.10;;;4.10;99.90;;;;;;4897648;29;20227;-70
2021/03/19 15:59:01;;;;;;;0.80;0.80;;;4.10;99.90;;;;;;4897385;29;20216;-70
2021/03/19 16:01:28;;;;;;;0.70;0.70;;;4.10;99.90;;;;;;4897399;29;20302;-70
2021/03/19 16:03:54;;;;;;;0.35;0.35;;;4.10;99.90;;;;;;4897100;29;20215;-70
2021/03/19 16:06:20;;;;;;;0.60;0.60;;;4.10;99.90;;;;;;4896922;29;20203;-70
2021/03/19 16:08:47;;;;;;;1.38;0.35;;;4.00;99.80;;;;;;4897382;29;20219;-70
2021/03/19 16:11:13;;;;;;;0.50;0.50;;;4.00;99.80;;;;;;4895709;29;20227;-70
2021/03/19 16:13:46;;;;;;;3.53;0.60;;;4.00;99.90;;;;;;4893968;29;20215;-70
2021/03/19 16:16:13;;;;;;;0.63;0.63;;;3.90;99.90;;;;;;4896850;29;20223;-70
2021/03/19 16:18:39;;;;;;;0.50;0.50;;;3.90;99.90;;;;;;4888912;29;20247;-69
2021/03/19 16:21:06;;;;;;;0.80;0.80;;;3.80;99.90;;;;;;4895900;29;20228;-69
2021/03/19 16:23:32;;;;;;;1.17;1.17;;;3.80;99.90;;;;;;4893202;29;20210;-69
2021/03/19 16:25:59;;;;;;;1.38;0.80;;;3.70;99.90;;;;;;4894091;29;20214;-69
2021/03/19 16:28:27;;;;;;;0.82;0.82;;;3.70;99.90;;;;;;4894019;29;20208;-69
2021/03/19 16:30:56;;;;;;;0.95;0.95;;;3.70;99.90;;;;;;4894668;29;20283;-69
2021/03/19 16:33:22;;;;;;;1.13;1.05;;;3.70;99.90;;;;;;4895671;29;20267;-70
2021/03/19 16:35:51;;;;;;;0.85;0.85;;;3.70;99.90;;;;;;4885078;29;20235;-69
2021/03/19 16:38:20;;;;;;;1.00;0.50;;;3.70;99.90;;;;;;4904804;29;20215;-69
2021/03/19 16:40:50;;;;;;;1.15;1.05;;;3.60;99.90;;;;;;4887472;29;20688;-69
2021/03/19 16:43:17;;;;;;;1.17;1.10;;;3.50;99.90;;;;;;4892277;29;20211;-69
2021/03/19 16:45:45;;;;;;;1.35;0.90;;;3.50;99.90;;;;;;4896650;29;20203;-69
2021/03/19 16:48:12;;;;;;;2.20;2.08;;;3.40;99.90;;;;;;4895981;29;20211;-69
2021/03/19 16:50:39;;;;;;;0.98;0.98;;;3.30;99.90;;;;;;4892999;29;20231;-69
2021/03/19 16:53:06;;;;;;;1.08;1.08;;;3.30;99.90;;;;;;4893598;29;20861;-69
2021/03/19 16:55:35;;;;;;;1.00;1.00;;;3.20;99.90;;;;;;4893430;29;20212;-70
2021/03/19 16:58:01;;;;;;;0.88;0.88;;;3.20;99.90;;;;;;4895660;29;20251;-69
2021/03/19 17:00:30;;;;;;;1.08;1.08;;;3.10;99.90;;;;;;4896429;29;20731;-69
2021/03/19 17:02:58;;;;;;;0.70;0.70;;;3.10;99.90;;;;;;4883116;29;20230;-69
2021/03/19 17:05:24;;;;;;;4.53;1.55;;;3.00;99.30;;;;;;4899118;29;20211;-70
2021/03/19 17:07:51;;;;;;;1.58;1.48;;;2.90;99.70;;;;;;4890571;29;20299;-70
2021/03/19 17:10:22;;;;;;;1.27;1.20;;;2.90;99.90;;;;;;4889572;29;20716;-70
2021/03/19 17:12:49;;;;;;;3.35;1.90;;;2.80;99.90;;;;;;4895354;29;20214;-70
2021/03/19 17:15:16;;;;;;;0.98;0.95;;;2.80;99.90;;;;;;4896636;29;20293;-68
2021/03/19 17:17:43;;;;;;;3.08;1.63;;;2.80;99.90;;;;;;4893991;29;20657;-69
2021/03/19 17:20:11;;;;;;;2.38;1.80;;;2.70;99.90;;;;;;4878488;29;20916;-69
2021/03/19 17:22:37;;;;;;;1.20;1.20;;;2.70;99.90;;;;;;4909082;29;20715;-69
2021/03/19 17:25:05;;;;;;;1.50;1.50;;;2.60;99.90;;;;;;4916116;29;20210;-69
2021/03/19 17:27:31;;;;;;;3.30;1.95;;;2.50;99.90;;;;;;4897202;29;20553;-69
2021/03/19 17:29:57;;;;;;;1.40;1.30;;;2.50;99.90;;;;;;4898716;29;20246;-69
2021/03/19 17:32:24;;;;;;;2.28;1.55;;;2.40;99.90;;;;;;4903561;29;20626;-69
2021/03/19 17:34:51;;;;;;;1.05;1.05;;;2.30;99.90;;;;;;4901811;29;20214;-69
2021/03/19 17:37:17;;;;;;;1.60;1.60;;;2.30;99.60;;;;;;4907583;29;20234;-70
2021/03/19 17:39:46;;;;;;;2.00;1.90;;;2.20;99.40;;;;;;4897048;29;20298;-70
2021/03/19 17:42:12;;;;;;;1.45;1.35;;;2.20;98.90;;;;;;4896624;29;20231;-69
2021/03/19 17:44:38;;;;;;;1.85;1.75;;;2.10;98.30;;;;;;4896057;29;20204;-69
2021/03/19 17:47:06;;;;;;;1.58;1.58;;;2.10;97.90;;;;;;4897438;29;20203;-70
2021/03/19 17:49:33;;;;;;;1.83;1.10;;;2.00;98.00;;;;;;4897587;29;20204;-69
2021/03/19 17:52:01;;;;;;;2.22;2.22;;;2.00;96.40;;;;;;4890291;29;20284;-69
2021/03/19 17:54:27;;;;;;;1.92;1.85;;;2.00;96.60;;;;;;4903734;29;20297;-69
2021/03/19 17:56:53;;;;;;;2.92;1.90;;;1.90;96.40;;;;;;4915933;29;20579;-68
2021/03/19 17:59:19;;;;;;;4.15;3.63;;;1.80;96.50;;;;;;4917667;29;20234;-70
2021/03/19 18:01:46;;;;;;;2.20;2.10;;;1.80;97.00;;;;;;4915873;29;20289;-70
2021/03/19 18:04:12;;;;;;;6.20;1.50;;;1.80;97.40;;;;;;4918525;29;20211;-70
2021/03/19 18:06:38;;;;;;;1.50;1.40;;;1.70;96.90;;;;;;4915441;29;20205;-72
2021/03/19 18:09:08;;;;;;;1.45;1.45;;;1.70;97.20;;;;;;4918809;29;20210;-72
2021/03/19 18:11:34;;;;;;;1.00;1.00;;;1.60;97.40;;;;;;4915217;29;20305;-72
2021/03/19 18:14:00;;;;;;;1.10;1.10;;;1.60;97.40;;;;;;4918650;29;20213;-72
2021/03/19 18:16:27;;;;;;;1.67;1.15;;;1.60;97.70;;;;;;4913024;29;20540;-72
2021/03/19 18:18:53;;;;;;;1.65;1.30;;;1.50;98.70;;;;;;4911704;29;20234;-73